createdAt,value
2018-02-12T00:00:08.623Z,99.99
2018-02-12T00:01:07.762Z,99.99
2018-02-12T00:02:07.781Z,99.99
2018-02-12T00:03:07.787Z,99.99
2018-02-12T00:04:07.765Z,99.99
2018-02-12T00:05:07.758Z,99.99
2018-02-12T00:06:07.752Z,99.99
2018-02-12T00:07:07.747Z,99.99
2018-02-12T00:08:07.749Z,99.99
2018-02-12T00:09:07.799Z,99.99
2018-02-12T00:10:07.738Z,99.99
2018-02-12T00:11:07.727Z,99.99
2018-02-12T00:12:07.732Z,99.99
2018-02-12T00:13:07.843Z,99.99
2018-02-12T00:14:07.741Z,99.99
2018-02-12T00:15:07.735Z,99.99
2018-02-12T00:16:07.749Z,99.99
2018-02-12T00:17:07.746Z,99.99
2018-02-12T00:18:07.812Z,99.99
2018-02-12T00:19:07.714Z,99.99
2018-02-12T00:20:07.709Z,99.99
2018-02-12T00:21:07.707Z,99.99
2018-02-12T00:22:07.851Z,99.99
2018-02-12T00:23:07.699Z,99.99
2018-02-12T00:24:07.696Z,99.99
2018-02-12T00:25:07.718Z,99.99
2018-02-12T00:26:07.707Z,99.99
2018-02-12T00:27:07.685Z,99.99
2018-02-12T00:28:07.847Z,99.99
2018-02-12T00:29:07.688Z,99.99
2018-02-12T00:30:07.688Z,99.99
2018-02-12T00:31:07.684Z,99.99
2018-02-12T00:32:07.705Z,99.99
2018-02-12T00:33:07.679Z,99.99
2018-02-12T00:34:07.717Z,99.99
2018-02-12T00:35:07.668Z,99.99
2018-02-12T00:36:07.674Z,99.99
2018-02-12T00:37:07.714Z,99.99
2018-02-12T00:38:07.680Z,99.99
2018-02-12T00:39:07.683Z,99.99
2018-02-12T00:40:07.660Z,99.99
2018-02-12T00:41:07.679Z,99.99
2018-02-12T00:42:07.663Z,99.99
2018-02-12T00:43:07.638Z,99.99
2018-02-12T00:44:07.640Z,99.99
2018-02-12T00:45:07.644Z,99.99
2018-02-12T00:46:07.727Z,99.99
2018-02-12T00:47:07.643Z,99.99
2018-02-12T00:48:07.658Z,99.99
2018-02-12T00:49:07.640Z,99.99
2018-02-12T00:50:07.625Z,99.99
2018-02-12T00:51:07.626Z,99.99
2018-02-12T00:52:07.639Z,99.99
2018-02-12T00:53:07.616Z,99.99
2018-02-12T00:54:07.608Z,99.99
2018-02-12T00:55:07.658Z,99.99
2018-02-12T00:56:07.608Z,99.99
2018-02-12T00:57:07.612Z,99.99
2018-02-12T00:58:07.599Z,99.99
2018-02-12T00:59:07.605Z,99.99
2018-02-12T01:00:07.614Z,99.99
2018-02-12T01:01:07.584Z,99.99
2018-02-12T01:02:07.596Z,99.99
2018-02-12T01:03:07.633Z,99.99
2018-02-12T01:04:07.586Z,99.99
2018-02-12T01:05:07.629Z,99.99
2018-02-12T01:06:07.598Z,99.99
2018-02-12T01:07:07.591Z,99.99
2018-02-12T01:08:07.583Z,99.99
2018-02-12T01:09:07.576Z,99.99
2018-02-12T01:10:07.581Z,99.99
2018-02-12T01:11:07.570Z,99.99
2018-02-12T01:12:07.590Z,99.99
2018-02-12T01:13:07.559Z,99.99
2018-02-12T01:14:07.569Z,99.99
2018-02-12T01:15:07.568Z,99.99
2018-02-12T01:16:07.551Z,99.99
2018-02-12T01:17:07.553Z,99.99
2018-02-12T01:18:07.548Z,99.99
2018-02-12T01:19:07.560Z,99.99
2018-02-12T01:20:07.572Z,99.99
2018-02-12T01:21:07.546Z,99.99
2018-02-12T01:22:07.555Z,99.99
2018-02-12T01:23:07.536Z,99.99
2018-02-12T01:24:07.561Z,99.99
2018-02-12T01:25:07.574Z,99.99
2018-02-12T01:26:07.530Z,99.99
2018-02-12T01:27:07.533Z,99.99
2018-02-12T01:28:07.524Z,99.99
2018-02-12T01:29:07.534Z,99.99
2018-02-12T01:30:07.516Z,99.99
2018-02-12T01:31:08.133Z,99.99
2018-02-12T01:32:07.535Z,99.99
2018-02-12T01:33:07.521Z,99.99
2018-02-12T01:34:07.534Z,99.99
2018-02-12T01:35:07.502Z,99.99
2018-02-12T01:36:07.501Z,99.99
2018-02-12T01:37:07.552Z,99.99
2018-02-12T01:38:07.508Z,99.99
2018-02-12T01:39:07.499Z,99.99
2018-02-12T01:40:07.542Z,99.99
2018-02-12T01:41:07.489Z,99.99
2018-02-12T01:42:07.496Z,99.99
2018-02-12T01:43:07.968Z,99.99
2018-02-12T01:44:07.505Z,99.99
2018-02-12T01:45:07.503Z,99.99
2018-02-12T01:46:07.484Z,99.99
2018-02-12T01:47:07.582Z,99.99
2018-02-12T01:48:07.469Z,99.99
2018-02-12T01:49:07.478Z,99.99
2018-02-12T01:50:07.468Z,99.99
2018-02-12T01:51:07.473Z,99.99
2018-02-12T01:52:07.472Z,99.99
2018-02-12T01:53:07.465Z,99.99
2018-02-12T01:54:07.462Z,99.99
2018-02-12T01:55:07.460Z,99.99
2018-02-12T01:56:07.453Z,99.99
2018-02-12T01:57:07.475Z,99.99
2018-02-12T01:58:07.452Z,99.99
2018-02-12T01:59:07.450Z,99.99
2018-02-12T02:00:07.440Z,99.99
2018-02-12T02:01:07.435Z,99.99
2018-02-12T02:02:07.435Z,99.99
2018-02-12T02:03:07.439Z,99.99
2018-02-12T02:04:07.479Z,99.99
2018-02-12T02:05:07.449Z,99.99
2018-02-12T02:06:07.448Z,99.99
2018-02-12T02:07:07.418Z,99.99
2018-02-12T02:08:08.143Z,99.99
2018-02-12T02:09:07.431Z,99.99
2018-02-12T02:10:07.418Z,99.99
2018-02-12T02:11:07.419Z,99.99
2018-02-12T02:12:07.419Z,99.99
2018-02-12T02:13:07.425Z,99.99
2018-02-12T02:14:07.402Z,99.99
2018-02-12T02:15:07.444Z,99.99
2018-02-12T02:16:07.407Z,99.99
2018-02-12T02:17:07.418Z,99.99
2018-02-12T02:18:07.405Z,99.99
2018-02-12T02:19:07.443Z,99.99
2018-02-12T02:20:07.395Z,99.99
2018-02-12T02:21:07.383Z,99.99
2018-02-12T02:22:07.389Z,99.99
2018-02-12T02:23:07.383Z,99.99
2018-02-12T02:24:07.375Z,99.99
2018-02-12T02:25:07.386Z,99.99
2018-02-12T02:26:07.390Z,99.99
2018-02-12T02:27:07.376Z,99.99
2018-02-12T02:28:08.142Z,99.99
2018-02-12T02:29:07.382Z,99.99
2018-02-12T02:30:07.373Z,99.99
2018-02-12T02:31:07.361Z,99.99
2018-02-12T02:32:07.365Z,99.99
2018-02-12T02:33:07.351Z,99.99
2018-02-12T02:34:07.397Z,99.99
2018-02-12T02:35:07.351Z,99.99
2018-02-12T02:36:07.354Z,99.99
2018-02-12T02:37:07.370Z,99.99
2018-02-12T02:38:07.361Z,99.99
2018-02-12T02:39:07.354Z,99.99
2018-02-12T02:40:07.337Z,99.99
2018-02-12T02:41:07.357Z,99.99
2018-02-12T02:42:07.334Z,99.99
2018-02-12T02:43:07.335Z,99.99
2018-02-12T02:44:07.332Z,99.99
2018-02-12T02:45:07.332Z,99.99
2018-02-12T02:46:07.329Z,99.99
2018-02-12T02:47:07.350Z,99.99
2018-02-12T02:48:07.317Z,99.99
2018-02-12T02:49:07.326Z,99.99
2018-02-12T02:50:07.325Z,99.99
2018-02-12T02:51:07.305Z,99.99
2018-02-12T02:52:07.380Z,99.99
2018-02-12T02:53:07.302Z,99.99
2018-02-12T02:54:07.299Z,99.99
2018-02-12T02:55:07.303Z,99.99
2018-02-12T02:56:07.313Z,99.99
2018-02-12T02:57:07.302Z,99.99
2018-02-12T02:58:07.317Z,99.99
2018-02-12T02:59:07.283Z,99.99
2018-02-12T03:00:07.290Z,99.99
2018-02-12T03:01:07.276Z,99.99
2018-02-12T03:02:07.329Z,99.99
2018-02-12T03:03:07.276Z,99.99
2018-02-12T03:04:07.294Z,99.99
2018-02-12T03:05:07.282Z,99.99
2018-02-12T03:06:07.293Z,99.99
2018-02-12T03:07:07.284Z,99.99
2018-02-12T03:08:07.281Z,99.99
2018-02-12T03:09:07.273Z,99.99
2018-02-12T03:10:07.262Z,99.99
2018-02-12T03:11:07.257Z,99.99
2018-02-12T03:12:07.258Z,99.99
2018-02-12T03:13:07.251Z,99.99
2018-02-12T03:14:07.251Z,99.99
2018-02-12T03:15:07.268Z,99.99
2018-02-12T03:16:07.267Z,99.99
2018-02-12T03:17:07.245Z,99.99
2018-02-12T03:18:07.287Z,99.99
2018-02-12T03:19:07.257Z,99.99
2018-02-12T03:20:07.267Z,99.99
2018-02-12T03:21:07.238Z,99.99
2018-02-12T03:22:07.243Z,99.99
2018-02-12T03:23:07.228Z,99.99
2018-02-12T03:24:07.243Z,99.99
2018-02-12T03:25:07.222Z,99.99
2018-02-12T03:26:07.224Z,99.99
2018-02-12T03:27:07.211Z,99.99
2018-02-12T03:28:07.235Z,99.99
2018-02-12T03:29:07.246Z,99.99
2018-02-12T03:30:07.208Z,99.99
2018-02-12T03:31:07.269Z,99.99
2018-02-12T03:32:07.195Z,99.99
2018-02-12T03:33:07.202Z,99.99
2018-02-12T03:34:07.235Z,99.99
2018-02-12T03:35:07.225Z,99.99
2018-02-12T03:36:07.235Z,99.99
2018-02-12T03:37:07.199Z,99.99
2018-02-12T03:38:07.209Z,99.99
2018-02-12T03:39:07.227Z,99.99
2018-02-12T03:40:08.152Z,99.99
2018-02-12T03:41:07.211Z,99.99
2018-02-12T03:42:07.199Z,99.99
2018-02-12T03:43:07.171Z,99.99
2018-02-12T03:44:07.192Z,99.99
2018-02-12T03:45:07.178Z,99.99
2018-02-12T03:46:07.174Z,99.99
2018-02-12T03:47:07.201Z,99.99
2018-02-12T03:48:07.160Z,99.99
2018-02-12T03:49:07.209Z,99.99
2018-02-12T03:50:07.169Z,99.99
2018-02-12T03:51:07.178Z,99.99
2018-02-12T03:52:07.155Z,99.99
2018-02-12T03:53:07.155Z,99.99
2018-02-12T03:54:07.142Z,99.99
2018-02-12T03:55:07.147Z,99.99
2018-02-12T03:56:07.140Z,99.99
2018-02-12T03:57:07.137Z,99.99
2018-02-12T03:58:07.148Z,99.99
2018-02-12T03:59:07.141Z,99.99
2018-02-12T04:00:07.140Z,99.99
2018-02-12T04:01:07.150Z,99.99
2018-02-12T04:02:07.151Z,99.99
2018-02-12T04:03:07.126Z,99.99
2018-02-12T04:04:07.138Z,99.99
2018-02-12T04:05:07.143Z,99.99
2018-02-12T04:06:07.356Z,99.99
2018-02-12T04:07:07.116Z,99.99
2018-02-12T04:08:07.109Z,99.99
2018-02-12T04:09:07.112Z,99.99
2018-02-12T04:10:07.110Z,99.99
2018-02-12T04:11:07.653Z,99.99
2018-02-12T04:12:07.133Z,99.99
2018-02-12T04:13:07.111Z,99.99
2018-02-12T04:14:07.088Z,99.99
2018-02-12T04:15:07.204Z,99.99
2018-02-12T04:16:07.106Z,99.99
2018-02-12T04:17:07.091Z,99.99
2018-02-12T04:18:07.118Z,99.99
2018-02-12T04:19:07.094Z,99.99
2018-02-12T04:20:07.118Z,99.99
2018-02-12T04:21:07.094Z,99.99
2018-02-12T04:22:07.082Z,99.99
2018-02-12T04:23:07.092Z,99.99
2018-02-12T04:24:07.075Z,99.99
2018-02-12T04:25:07.070Z,99.99
2018-02-12T04:26:07.072Z,99.99
2018-02-12T04:27:07.076Z,99.99
2018-02-12T04:28:07.656Z,99.99
2018-02-12T04:29:07.079Z,99.99
2018-02-12T04:30:07.067Z,99.99
2018-02-12T04:31:07.062Z,99.99
2018-02-12T04:32:07.065Z,99.99
2018-02-12T04:33:07.040Z,99.99
2018-02-12T04:34:07.048Z,99.99
2018-02-12T04:35:07.071Z,99.99
2018-02-12T04:36:07.064Z,99.99
2018-02-12T04:37:07.046Z,99.99
2018-02-12T04:38:07.040Z,99.99
2018-02-12T04:39:07.038Z,99.99
2018-02-12T04:40:07.028Z,99.99
2018-02-12T04:41:07.029Z,99.99
2018-02-12T04:42:07.030Z,99.99
2018-02-12T04:43:07.657Z,99.99
2018-02-12T04:44:07.025Z,99.99
2018-02-12T04:45:07.053Z,99.99
2018-02-12T04:46:07.017Z,99.99
2018-02-12T04:47:07.070Z,99.99
2018-02-12T04:48:07.013Z,99.99
2018-02-12T04:49:07.022Z,99.99
2018-02-12T04:50:07.028Z,99.99
2018-02-12T04:51:07.012Z,99.99
2018-02-12T04:52:07.008Z,99.99
2018-02-12T04:53:06.992Z,99.99
2018-02-12T04:54:06.989Z,99.99
2018-02-12T04:55:07.023Z,99.99
2018-02-12T04:56:06.993Z,99.99
2018-02-12T04:57:06.997Z,99.99
2018-02-12T04:58:06.992Z,99.99
2018-02-12T04:59:07.074Z,99.99
2018-02-12T05:00:06.974Z,99.99
2018-02-12T05:01:07.037Z,99.99
2018-02-12T05:02:06.981Z,99.99
2018-02-12T05:03:06.975Z,99.99
2018-02-12T05:04:06.972Z,99.99
2018-02-12T05:05:07.010Z,99.99
2018-02-12T05:06:06.961Z,99.99
2018-02-12T05:07:06.961Z,99.99
2018-02-12T05:08:06.971Z,99.99
2018-02-12T05:09:06.952Z,99.99
2018-02-12T05:10:06.956Z,99.99
2018-02-12T05:11:06.942Z,99.99
2018-02-12T05:12:06.958Z,99.99
2018-02-12T05:13:06.967Z,99.99
2018-02-12T05:14:06.960Z,99.99
2018-02-12T05:15:06.938Z,99.99
2018-02-12T05:16:06.934Z,99.99
2018-02-12T05:17:06.938Z,99.99
2018-02-12T05:18:06.929Z,99.99
2018-02-12T05:19:06.938Z,99.99
2018-02-12T05:20:06.929Z,99.99
2018-02-12T05:21:06.977Z,99.99
2018-02-12T05:22:06.919Z,99.99
2018-02-12T05:23:06.921Z,99.99
2018-02-12T05:24:06.917Z,99.99
2018-02-12T05:25:07.664Z,99.99
2018-02-12T05:26:06.942Z,99.99
2018-02-12T05:27:06.913Z,99.99
2018-02-12T05:28:06.903Z,99.99
2018-02-12T05:29:06.930Z,99.99
2018-02-12T05:30:07.674Z,99.99
2018-02-12T05:31:07.041Z,99.99
2018-02-12T05:32:06.904Z,99.99
2018-02-12T05:33:06.943Z,99.99
2018-02-12T05:34:06.893Z,99.99
2018-02-12T05:35:06.890Z,99.99
2018-02-12T05:36:06.906Z,99.99
2018-02-12T05:37:06.881Z,99.99
2018-02-12T05:38:06.882Z,99.99
2018-02-12T05:39:06.891Z,99.99
2018-02-12T05:40:06.892Z,99.99
2018-02-12T05:41:06.901Z,99.99
2018-02-12T05:42:06.885Z,99.99
2018-02-12T05:43:06.915Z,99.99
2018-02-12T05:44:06.865Z,99.99
2018-02-12T05:45:06.874Z,99.99
2018-02-12T05:46:06.872Z,99.99
2018-02-12T05:47:07.159Z,99.99
2018-02-12T05:48:06.889Z,99.99
2018-02-12T05:49:06.858Z,99.99
2018-02-12T05:50:06.852Z,99.99
2018-02-12T05:51:06.871Z,99.99
2018-02-12T05:52:06.849Z,99.99
2018-02-12T05:53:06.852Z,99.99
2018-02-12T05:54:06.857Z,99.99
2018-02-12T05:55:06.852Z,99.99
2018-02-12T05:56:06.882Z,99.99
2018-02-12T05:57:06.840Z,99.99
2018-02-12T05:58:06.843Z,99.99
2018-02-12T05:59:06.851Z,99.99
2018-02-12T06:00:06.820Z,99.99
2018-02-12T06:01:06.854Z,99.99
2018-02-12T06:02:06.842Z,99.99
2018-02-12T06:03:06.837Z,99.99
2018-02-12T06:04:06.819Z,99.99
2018-02-12T06:05:06.829Z,99.99
2018-02-12T06:06:06.809Z,99.99
2018-02-12T06:07:06.823Z,99.99
2018-02-12T06:08:06.807Z,99.99
2018-02-12T06:09:06.807Z,99.99
2018-02-12T06:10:06.819Z,99.99
2018-02-12T06:11:06.797Z,99.99
2018-02-12T06:12:06.794Z,99.99
2018-02-12T06:13:06.833Z,99.99
2018-02-12T06:14:06.782Z,99.99
2018-02-12T06:15:06.790Z,99.99
2018-02-12T06:16:06.804Z,99.99
2018-02-12T06:17:06.784Z,99.99
2018-02-12T06:18:06.790Z,99.99
2018-02-12T06:19:06.801Z,99.99
2018-02-12T06:20:06.769Z,99.99
2018-02-12T06:21:06.761Z,99.99
2018-02-12T06:22:06.771Z,99.99
2018-02-12T06:23:06.761Z,99.99
2018-02-12T06:24:06.765Z,99.99
2018-02-12T06:25:07.679Z,99.99
2018-02-12T06:26:06.759Z,99.99
2018-02-12T06:27:06.766Z,99.99
2018-02-12T06:28:06.755Z,99.99
2018-02-12T06:29:06.795Z,99.99
2018-02-12T06:30:06.763Z,99.99
2018-02-12T06:31:06.772Z,99.99
2018-02-12T06:32:06.998Z,99.99
2018-02-12T06:33:06.759Z,99.99
2018-02-12T06:34:06.728Z,99.99
2018-02-12T06:35:06.735Z,99.99
2018-02-12T06:36:06.728Z,99.99
2018-02-12T06:37:06.741Z,99.99
2018-02-12T06:38:06.738Z,99.99
2018-02-12T06:39:06.744Z,99.99
2018-02-12T06:40:06.738Z,99.99
2018-02-12T06:41:06.743Z,99.99
2018-02-12T06:42:06.710Z,99.99
2018-02-12T06:43:06.732Z,99.99
2018-02-12T06:44:06.703Z,99.99
2018-02-12T06:45:06.701Z,99.99
2018-02-12T06:46:06.719Z,99.99
2018-02-12T06:47:06.701Z,99.99
2018-02-12T06:48:06.708Z,99.99
2018-02-12T06:49:06.891Z,99.99
2018-02-12T06:50:08.692Z,99.99
2018-02-12T06:51:06.690Z,99.99
2018-02-12T06:52:06.696Z,99.99
2018-02-12T06:53:06.685Z,99.99
2018-02-12T06:54:06.700Z,99.99
2018-02-12T06:55:06.693Z,99.99
2018-02-12T06:56:06.693Z,99.99
2018-02-12T06:57:06.675Z,99.99
2018-02-12T06:58:06.691Z,99.99
2018-02-12T06:59:06.666Z,99.99
2018-02-12T07:00:06.669Z,99.99
2018-02-12T07:01:06.671Z,99.99
2018-02-12T07:02:06.663Z,99.99
2018-02-12T07:03:06.655Z,99.99
2018-02-12T07:04:06.652Z,99.99
2018-02-12T07:05:06.645Z,99.99
2018-02-12T07:06:06.650Z,99.99
2018-02-12T07:07:06.643Z,99.99
2018-02-12T07:08:06.658Z,99.99
2018-02-12T07:09:06.641Z,99.99
2018-02-12T07:10:06.646Z,99.99
2018-02-12T07:11:06.639Z,99.99
2018-02-12T07:12:07.188Z,99.99
2018-02-12T07:13:06.672Z,99.99
2018-02-12T07:14:06.623Z,99.99
2018-02-12T07:15:06.626Z,99.99
2018-02-12T07:16:06.642Z,99.99
2018-02-12T07:17:06.680Z,99.99
2018-02-12T07:18:06.616Z,99.99
2018-02-12T07:19:06.621Z,99.99
2018-02-12T07:20:06.650Z,99.99
2018-02-12T07:21:06.601Z,99.99
2018-02-12T07:22:06.620Z,99.99
2018-02-12T07:23:06.610Z,99.99
2018-02-12T07:24:06.598Z,99.99
2018-02-12T07:25:06.606Z,99.99
2018-02-12T07:26:06.622Z,99.99
2018-02-12T07:27:06.612Z,99.99
2018-02-12T07:28:06.616Z,99.99
2018-02-12T07:29:06.583Z,99.99
2018-02-12T07:30:06.614Z,99.99
2018-02-12T07:31:06.628Z,99.99
2018-02-12T07:32:06.594Z,99.99
2018-02-12T07:33:06.744Z,99.99
2018-02-12T07:34:06.593Z,99.99
2018-02-12T07:35:06.570Z,99.99
2018-02-12T07:36:06.589Z,99.99
2018-02-12T07:37:06.631Z,99.99
2018-02-12T07:38:06.582Z,99.99
2018-02-12T07:39:06.620Z,99.99
2018-02-12T07:40:06.590Z,99.99
2018-02-12T07:41:06.652Z,99.99
2018-02-12T07:42:06.552Z,99.99
2018-02-12T07:43:06.597Z,99.99
2018-02-12T07:44:06.547Z,99.99
2018-02-12T07:45:06.611Z,99.99
2018-02-12T07:46:07.181Z,99.99
2018-02-12T07:47:06.554Z,99.90
2018-02-12T07:48:06.548Z,99.99
2018-02-12T07:49:06.577Z,99.99
2018-02-12T07:50:06.533Z,99.96
2018-02-12T07:51:06.687Z,99.10
2018-02-12T07:52:06.563Z,99.01
2018-02-12T07:53:06.537Z,99.29
2018-02-12T07:54:07.263Z,99.99
2018-02-12T07:55:06.533Z,99.99
2018-02-12T07:56:06.528Z,99.99
2018-02-12T07:57:06.521Z,99.99
2018-02-12T07:58:06.522Z,99.99
2018-02-12T07:59:06.542Z,99.99
2018-02-12T08:00:06.509Z,99.99
2018-02-12T08:01:06.511Z,99.90
2018-02-12T08:02:06.514Z,99.96
2018-02-12T08:03:06.538Z,99.39
2018-02-12T08:04:06.500Z,99.77
2018-02-12T08:05:06.492Z,99.86
2018-02-12T08:06:06.542Z,99.01
2018-02-12T08:07:06.553Z,98.25
2018-02-12T08:08:06.495Z,98.35
2018-02-12T08:09:06.500Z,97.26
2018-02-12T08:10:06.502Z,96.69
2018-02-12T08:11:06.524Z,96.07
2018-02-12T08:12:06.579Z,97.30
2018-02-12T08:13:06.530Z,98.25
2018-02-12T08:14:06.489Z,98.06
2018-02-12T08:15:06.480Z,98.25
2018-02-12T08:16:06.523Z,97.78
2018-02-12T08:17:06.478Z,99.29
2018-02-12T08:18:06.492Z,99.48
2018-02-12T08:19:06.491Z,99.20
2018-02-12T08:20:06.514Z,98.82
2018-02-12T08:21:06.476Z,99.48
2018-02-12T08:22:06.485Z,99.10
2018-02-12T08:23:06.604Z,99.86
2018-02-12T08:24:07.278Z,99.99
2018-02-12T08:25:06.523Z,99.01
2018-02-12T08:26:06.478Z,98.82
2018-02-12T08:27:06.453Z,98.91
2018-02-12T08:28:06.491Z,98.63
2018-02-12T08:29:06.471Z,98.91
2018-02-12T08:30:06.486Z,99.10
2018-02-12T08:31:06.462Z,99.10
2018-02-12T08:32:06.756Z,99.06
2018-02-12T08:33:06.457Z,98.11
2018-02-12T08:34:06.459Z,97.54
2018-02-12T08:35:06.438Z,97.16
2018-02-12T08:36:06.561Z,97.26
2018-02-12T08:37:06.493Z,96.69
2018-02-12T08:38:06.607Z,96.22
2018-02-12T08:39:06.478Z,95.26
2018-02-12T08:40:06.604Z,94.84
2018-02-12T08:41:06.500Z,94.70
2018-02-12T08:42:06.506Z,94.46
2018-02-12T08:43:06.481Z,94.79
2018-02-12T08:44:06.544Z,94.51
2018-02-12T08:45:06.610Z,95.84
2018-02-12T08:46:06.563Z,96.69
2018-02-12T08:47:06.435Z,97.26
2018-02-12T08:48:06.475Z,97.35
2018-02-12T08:49:06.475Z,96.69
2018-02-12T08:50:06.463Z,96.88
2018-02-12T08:51:06.443Z,96.22
2018-02-12T08:52:06.476Z,94.93
2018-02-12T08:53:06.415Z,93.41
2018-02-12T08:54:07.192Z,91.00
2018-02-12T08:55:06.447Z,90.05
2018-02-12T08:56:06.417Z,89.14
2018-02-12T08:57:06.459Z,87.01
2018-02-12T08:58:06.420Z,84.72
2018-02-12T08:59:06.416Z,83.20
2018-02-12T09:00:06.419Z,82.45
2018-02-12T09:01:06.406Z,83.01
2018-02-12T09:02:06.441Z,83.92
2018-02-12T09:03:06.435Z,86.63
2018-02-12T09:04:06.481Z,88.15
2018-02-12T09:05:06.415Z,89.15
2018-02-12T09:06:06.410Z,91.24
2018-02-12T09:07:07.209Z,91.85
2018-02-12T09:08:06.402Z,92.71
2018-02-12T09:09:06.409Z,92.61
2018-02-12T09:10:07.204Z,88.48
2018-02-12T09:11:06.426Z,86.63
2018-02-12T09:12:06.416Z,82.71
2018-02-12T09:13:06.400Z,79.62
2018-02-12T09:14:06.409Z,77.34
2018-02-12T09:15:06.416Z,75.23
2018-02-12T09:16:06.410Z,74.24
2018-02-12T09:17:06.416Z,74.08
2018-02-12T09:18:06.413Z,72.69
2018-02-12T09:19:06.445Z,70.12
2018-02-12T09:20:06.685Z,70.37
2018-02-12T09:21:06.441Z,72.42
2018-02-12T09:22:06.431Z,73.91
2018-02-12T09:23:06.438Z,75.21
2018-02-12T09:24:06.438Z,77.22
2018-02-12T09:25:06.436Z,82.97
2018-02-12T09:26:06.450Z,87.20
2018-02-12T09:27:06.460Z,88.91
2018-02-12T09:28:06.444Z,90.38
2018-02-12T09:29:06.431Z,91.24
2018-02-12T09:30:06.449Z,91.71
2018-02-12T09:31:06.440Z,93.13
2018-02-12T09:32:06.439Z,92.94
2018-02-12T09:33:07.208Z,93.61
2018-02-12T09:34:06.446Z,93.23
2018-02-12T09:35:06.467Z,92.85
2018-02-12T09:36:06.476Z,90.24
2018-02-12T09:37:06.439Z,89.05
2018-02-12T09:38:06.462Z,86.10
2018-02-12T09:39:06.448Z,80.90
2018-02-12T09:40:06.465Z,76.03
2018-02-12T09:41:06.503Z,72.44
2018-02-12T09:42:06.459Z,69.01
2018-02-12T09:43:06.472Z,68.24
2018-02-12T09:44:06.473Z,69.10
2018-02-12T09:45:06.492Z,72.64
2018-02-12T09:46:06.471Z,76.25
2018-02-12T09:47:06.466Z,79.35
2018-02-12T09:48:06.649Z,81.45
2018-02-12T09:49:06.475Z,82.78
2018-02-12T09:50:06.487Z,83.68
2018-02-12T09:51:06.543Z,82.77
2018-02-12T09:52:06.494Z,83.20
2018-02-12T09:53:06.495Z,82.68
2018-02-12T09:54:06.485Z,79.05
2018-02-12T09:55:06.482Z,77.68
2018-02-12T09:56:06.490Z,76.52
2018-02-12T09:57:06.568Z,74.84
2018-02-12T09:58:06.492Z,74.90
2018-02-12T09:59:06.497Z,73.85
2018-02-12T10:00:06.497Z,74.46
2018-02-12T10:01:06.706Z,72.85
2018-02-12T10:02:06.520Z,71.42
2018-02-12T10:03:06.513Z,72.30
2018-02-12T10:04:06.565Z,74.48
2018-02-12T10:05:06.513Z,75.19
2018-02-12T10:06:06.518Z,72.21
2018-02-12T10:07:06.556Z,70.18
2018-02-12T10:08:06.525Z,72.20
2018-02-12T10:09:06.530Z,74.48
2018-02-12T10:10:06.533Z,74.71
2018-02-12T10:11:06.526Z,75.43
2018-02-12T10:12:06.559Z,76.40
2018-02-12T10:13:06.546Z,79.31
2018-02-12T10:14:06.558Z,81.93
2018-02-12T10:15:06.540Z,83.30
2018-02-12T10:16:06.553Z,82.82
2018-02-12T10:17:06.614Z,82.26
2018-02-12T10:18:06.548Z,83.54
2018-02-12T10:19:06.568Z,85.82
2018-02-12T10:20:06.568Z,86.30
2018-02-12T10:21:06.556Z,87.15
2018-02-12T10:22:06.594Z,85.49
2018-02-12T10:23:06.571Z,83.44
2018-02-12T10:24:06.585Z,82.92
2018-02-12T10:25:06.571Z,82.73
2018-02-12T10:26:06.565Z,83.87
2018-02-12T10:27:06.582Z,84.63
2018-02-12T10:28:06.603Z,83.72
2018-02-12T10:29:06.595Z,82.58
2018-02-12T10:30:06.579Z,80.34
2018-02-12T10:31:06.592Z,79.58
2018-02-12T10:32:07.293Z,78.38
2018-02-12T10:33:06.587Z,75.57
2018-02-12T10:34:06.594Z,75.96
2018-02-12T10:35:06.802Z,76.86
2018-02-12T10:36:06.619Z,75.38
2018-02-12T10:37:06.602Z,74.37
2018-02-12T10:38:06.590Z,72.08
2018-02-12T10:39:06.639Z,71.55
2018-02-12T10:40:06.590Z,72.27
2018-02-12T10:41:06.610Z,71.45
2018-02-12T10:42:06.639Z,70.59
2018-02-12T10:43:06.621Z,71.47
2018-02-12T10:44:06.619Z,72.33
2018-02-12T10:45:06.632Z,72.81
2018-02-12T10:46:06.612Z,72.08
2018-02-12T10:47:06.638Z,69.64
2018-02-12T10:48:06.714Z,68.12
2018-02-12T10:49:06.703Z,68.21
2018-02-12T10:50:06.658Z,68.94
2018-02-12T10:51:06.698Z,69.07
2018-02-12T10:52:07.247Z,69.64
2018-02-12T10:53:06.662Z,68.40
2018-02-12T10:54:06.648Z,67.71
2018-02-12T10:55:06.652Z,65.52
2018-02-12T10:56:06.669Z,64.85
2018-02-12T10:57:06.732Z,65.10
2018-02-12T10:58:06.674Z,66.38
2018-02-12T10:59:06.696Z,64.47
2018-02-12T11:00:06.669Z,63.64
2018-02-12T11:01:06.676Z,63.70
2018-02-12T11:02:06.686Z,65.58
2018-02-12T11:03:06.686Z,65.23
2018-02-12T11:04:06.723Z,63.45
2018-02-12T11:05:06.730Z,63.70
2018-02-12T11:06:06.733Z,62.68
2018-02-12T11:07:06.720Z,61.38
2018-02-12T11:08:06.724Z,60.78
2018-02-12T11:09:06.723Z,61.44
2018-02-12T11:10:06.726Z,60.90
2018-02-12T11:11:06.755Z,61.47
2018-02-12T11:12:06.731Z,61.38
2018-02-12T11:13:06.755Z,60.81
2018-02-12T11:14:06.742Z,62.11
2018-02-12T11:15:06.735Z,62.02
2018-02-12T11:16:06.816Z,63.83
2018-02-12T11:17:06.764Z,63.20
2018-02-12T11:18:06.756Z,64.40
2018-02-12T11:19:06.840Z,67.10
2018-02-12T11:20:06.789Z,69.89
2018-02-12T11:21:06.786Z,67.68
2018-02-12T11:22:06.817Z,65.39
2018-02-12T11:23:06.862Z,64.53
2018-02-12T11:24:06.790Z,64.37
2018-02-12T11:25:06.834Z,63.86
2018-02-12T11:26:06.812Z,64.65
2018-02-12T11:27:06.828Z,66.27
2018-02-12T11:28:06.888Z,68.87
2018-02-12T11:29:06.885Z,72.77
2018-02-12T11:30:06.848Z,70.18
2018-02-12T11:31:06.833Z,70.77
2018-02-12T11:32:06.876Z,72.64
2018-02-12T11:33:06.847Z,74.01
2018-02-12T11:34:06.867Z,73.82
2018-02-12T11:35:06.877Z,74.16
2018-02-12T11:36:06.881Z,74.29
2018-02-12T11:37:06.860Z,74.01
2018-02-12T11:38:06.895Z,74.35
2018-02-12T11:39:06.923Z,73.72
2018-02-12T11:40:06.894Z,74.82
2018-02-12T11:41:06.981Z,74.26
2018-02-12T11:42:06.908Z,76.03
2018-02-12T11:43:06.933Z,76.50
2018-02-12T11:44:06.967Z,77.55
2018-02-12T11:45:06.904Z,77.36
2018-02-12T11:46:06.903Z,78.27
2018-02-12T11:47:06.904Z,78.45
2018-02-12T11:48:06.920Z,77.45
2018-02-12T11:49:06.929Z,77.17
2018-02-12T11:50:06.935Z,76.59
2018-02-12T11:51:07.001Z,75.15
2018-02-12T11:52:07.075Z,71.73
2018-02-12T11:53:06.947Z,68.65
2018-02-12T11:54:06.947Z,70.30
2018-02-12T11:55:06.936Z,72.45
2018-02-12T11:56:06.953Z,74.03
2018-02-12T11:57:06.942Z,74.12
2018-02-12T11:58:06.954Z,75.04
2018-02-12T11:59:06.960Z,75.70
2018-02-12T12:00:06.952Z,74.41
2018-02-12T12:01:06.994Z,75.42
2018-02-12T12:02:06.962Z,76.65
2018-02-12T12:03:06.982Z,76.06
2018-02-12T12:04:06.981Z,71.63
2018-02-12T12:05:06.973Z,71.59
2018-02-12T12:06:07.044Z,71.75
2018-02-12T12:07:06.986Z,71.41
2018-02-12T12:08:07.002Z,69.73
2018-02-12T12:09:06.976Z,69.50
2018-02-12T12:10:07.002Z,70.07
2018-02-12T12:11:06.999Z,72.41
2018-02-12T12:12:07.012Z,74.08
2018-02-12T12:13:06.997Z,75.70
2018-02-12T12:14:07.006Z,76.84
2018-02-12T12:15:06.999Z,74.35
2018-02-12T12:16:07.002Z,72.49
2018-02-12T12:17:07.007Z,72.45
2018-02-12T12:18:07.017Z,73.74
2018-02-12T12:19:07.010Z,74.94
2018-02-12T12:20:07.152Z,76.56
2018-02-12T12:21:07.038Z,77.31
2018-02-12T12:22:07.027Z,77.12
2018-02-12T12:23:07.046Z,77.03
2018-02-12T12:24:07.040Z,77.18
2018-02-12T12:25:07.040Z,77.09
2018-02-12T12:26:07.040Z,76.80
2018-02-12T12:27:07.775Z,78.03
2018-02-12T12:28:07.022Z,78.99
2018-02-12T12:29:07.054Z,78.89
2018-02-12T12:30:07.040Z,78.61
2018-02-12T12:31:07.041Z,79.55
2018-02-12T12:32:07.051Z,79.84
2018-02-12T12:33:07.797Z,79.84
2018-02-12T12:34:07.031Z,79.27
2018-02-12T12:35:07.047Z,79.55
2018-02-12T12:36:07.087Z,79.65
2018-02-12T12:37:07.105Z,79.08
2018-02-12T12:38:07.786Z,79.36
2018-02-12T12:39:07.775Z,80.03
2018-02-12T12:40:07.077Z,80.22
2018-02-12T12:41:07.079Z,79.84
2018-02-12T12:42:07.063Z,80.13
2018-02-12T12:43:07.097Z,80.13
2018-02-12T12:44:07.042Z,79.27
2018-02-12T12:45:07.100Z,79.84
2018-02-12T12:46:07.790Z,80.41
2018-02-12T12:47:07.083Z,80.22
2018-02-12T12:48:07.155Z,80.32
2018-02-12T12:49:07.094Z,81.07
2018-02-12T12:50:07.058Z,81.93
2018-02-12T12:51:07.099Z,82.12
2018-02-12T12:53:07.081Z,81.51